createdAt,value
2023-04-26T00:01:57.549Z,77.89
2023-04-26T00:04:25.325Z,77.43
2023-04-26T00:06:53.869Z,76.98
2023-04-26T00:09:20.991Z,76.66
2023-04-26T00:11:47.959Z,76.28
2023-04-26T00:14:15.681Z,78.19
2023-04-26T00:16:42.669Z,77.92
2023-04-26T00:19:12.796Z,78.43
2023-04-26T00:21:39.839Z,78.81
2023-04-26T00:24:08.718Z,78.80
2023-04-26T00:26:36.111Z,78.37
2023-04-26T00:29:04.431Z,78.39
2023-04-26T00:31:31.521Z,78.23
2023-04-26T00:33:58.449Z,76.80
2023-04-26T00:36:26.469Z,76.31
2023-04-26T00:38:53.839Z,76.81
2023-04-26T00:41:22.662Z,77.88
2023-04-26T00:43:49.916Z,77.78
2023-04-26T00:46:17.652Z,78.06
2023-04-26T00:48:45.202Z,78.18
2023-04-26T00:51:12.789Z,78.14
2023-04-26T00:53:40.020Z,77.61
2023-04-26T00:56:08.095Z,77.19
2023-04-26T00:58:36.867Z,78.10
2023-04-26T01:01:04.634Z,77.80
2023-04-26T01:03:31.729Z,78.45
2023-04-26T01:06:01.139Z,79.40
2023-04-26T01:08:28.179Z,79.54
2023-04-26T01:10:58.452Z,79.92
2023-04-26T01:13:26.871Z,79.60
2023-04-26T01:15:56.181Z,79.60
2023-04-26T01:18:23.258Z,81.20
2023-04-26T01:20:52.172Z,80.49
2023-04-26T01:23:20.280Z,81.28
2023-04-26T01:25:47.001Z,81.01
2023-04-26T01:28:13.976Z,80.33
2023-04-26T01:30:41.068Z,80.78
2023-04-26T01:33:08.053Z,79.95
2023-04-26T01:35:35.187Z,80.95
2023-04-26T01:38:04.393Z,81.04
2023-04-26T01:40:32.746Z,81.86
2023-04-26T01:42:59.813Z,82.49
2023-04-26T01:45:30.805Z,82.87
2023-04-26T01:48:16.863Z,83.15
2023-04-26T01:50:43.960Z,82.34
2023-04-26T01:53:13.691Z,82.13
2023-04-26T01:55:43.171Z,82.10
2023-04-26T01:58:10.132Z,82.58
2023-04-26T02:00:37.879Z,81.72
2023-04-26T02:03:04.908Z,81.32
2023-04-26T02:05:32.004Z,80.78
2023-04-26T02:07:58.995Z,82.36
2023-04-26T02:10:26.005Z,82.27
2023-04-26T02:12:54.318Z,82.13
2023-04-26T02:15:21.997Z,82.29
2023-04-26T02:17:49.757Z,83.08
2023-04-26T02:20:16.991Z,83.00
2023-04-26T02:22:44.192Z,81.75
2023-04-26T02:25:12.052Z,82.05
2023-04-26T02:27:39.001Z,82.00
2023-04-26T02:30:08.676Z,81.87
2023-04-26T02:32:36.507Z,83.06
2023-04-26T02:35:03.844Z,84.03
2023-04-26T02:37:30.853Z,83.25
2023-04-26T02:39:57.829Z,83.51
2023-04-26T02:42:25.098Z,83.60
2023-04-26T02:44:52.232Z,83.79
2023-04-26T02:47:20.741Z,82.97
2023-04-26T02:49:48.409Z,82.94
2023-04-26T02:52:15.409Z,82.15
2023-04-26T02:54:42.449Z,82.17
2023-04-26T02:57:09.950Z,81.28
2023-04-26T02:59:37.167Z,82.45
2023-04-26T03:02:04.193Z,82.66
2023-04-26T03:04:34.064Z,82.29
2023-04-26T03:07:01.316Z,81.13
2023-04-26T03:09:28.348Z,81.22
2023-04-26T03:11:55.326Z,81.44
2023-04-26T03:14:23.053Z,81.32
2023-04-26T03:16:50.437Z,81.75
2023-04-26T03:19:17.493Z,82.32
2023-04-26T03:21:46.051Z,82.46
2023-04-26T03:24:13.029Z,83.17
2023-04-26T03:26:40.130Z,83.45
2023-04-26T03:29:07.700Z,81.96
2023-04-26T03:31:34.999Z,82.55
2023-04-26T03:34:01.921Z,81.33
2023-04-26T03:36:29.875Z,82.13
2023-04-26T03:38:58.326Z,81.32
2023-04-26T03:41:25.581Z,81.65
2023-04-26T03:43:54.127Z,81.57
2023-04-26T03:46:21.166Z,81.25
2023-04-26T03:48:48.970Z,81.93
2023-04-26T03:51:16.858Z,81.91
2023-04-26T03:53:44.881Z,81.28
2023-04-26T03:56:13.883Z,81.37
2023-04-26T03:58:40.989Z,81.18
2023-04-26T04:01:08.722Z,81.27
2023-04-26T04:06:02.940Z,82.06
2023-04-26T04:08:29.941Z,81.83
2023-04-26T04:10:57.050Z,82.07
2023-04-26T04:13:26.455Z,81.91
2023-04-26T04:15:53.448Z,81.93
2023-04-26T04:18:20.536Z,81.63
2023-04-26T04:20:47.514Z,81.59
2023-04-26T04:23:14.681Z,81.72
2023-04-26T04:25:42.442Z,81.58
2023-04-26T04:28:12.116Z,80.61
2023-04-26T04:30:41.634Z,80.17
2023-04-26T04:33:08.677Z,80.13
2023-04-26T04:35:35.691Z,80.75
2023-04-26T04:38:04.956Z,80.29
2023-04-26T04:40:32.880Z,80.29
2023-04-26T04:43:01.031Z,80.71
2023-04-26T04:45:29.190Z,80.65
2023-04-26T04:47:59.112Z,80.92
2023-04-26T04:50:27.282Z,80.13
2023-04-26T04:52:55.551Z,79.78
2023-04-26T04:55:22.832Z,80.01
2023-04-26T04:57:49.982Z,79.15
2023-04-26T05:00:18.015Z,78.42
2023-04-26T05:02:49.814Z,78.63
2023-04-26T05:05:18.522Z,78.12
2023-04-26T05:07:45.623Z,77.73
2023-04-26T05:10:13.440Z,77.25
2023-04-26T05:12:41.127Z,77.77
2023-04-26T05:15:09.358Z,78.27
2023-04-26T05:17:36.568Z,77.65
2023-04-26T05:20:31.352Z,77.61
2023-04-26T05:22:58.257Z,78.26
2023-04-26T05:25:25.894Z,77.48
2023-04-26T05:28:12.645Z,77.12
2023-04-26T05:30:59.896Z,77.36
2023-04-26T05:33:39.912Z,75.65
2023-04-26T05:36:21.384Z,76.30
2023-04-26T05:38:48.907Z,75.82
2023-04-26T05:41:16.189Z,76.76
2023-04-26T05:43:43.630Z,76.04
2023-04-26T05:46:10.740Z,73.20
2023-04-26T05:48:37.874Z,74.29
2023-04-26T05:51:06.708Z,72.72
2023-04-26T05:53:35.037Z,72.68
2023-04-26T05:56:02.502Z,72.93
2023-04-26T05:58:29.477Z,73.63
2023-04-26T06:00:56.863Z,73.36
2023-04-26T06:03:24.755Z,72.24
2023-04-26T06:05:52.797Z,72.75
2023-04-26T06:08:21.854Z,72.62
2023-04-26T06:10:51.406Z,71.77
2023-04-26T06:13:18.345Z,71.98
2023-04-26T06:15:45.556Z,71.54
2023-04-26T06:18:12.632Z,70.97
2023-04-26T06:20:39.873Z,67.93
2023-04-26T06:23:07.776Z,67.00
2023-04-26T06:25:35.129Z,66.80
2023-04-26T06:28:03.912Z,61.83
2023-04-26T06:30:31.345Z,61.96
2023-04-26T06:33:00.296Z,63.33
2023-04-26T06:35:27.719Z,61.52
2023-04-26T06:37:54.694Z,61.85
2023-04-26T06:40:22.264Z,60.88
2023-04-26T06:42:49.709Z,61.57
2023-04-26T06:45:19.028Z,61.02
2023-04-26T06:47:46.815Z,61.27
2023-04-26T06:50:14.050Z,59.47
2023-04-26T06:52:40.941Z,60.69
2023-04-26T06:55:09.187Z,61.03
2023-04-26T06:57:36.487Z,60.92
2023-04-26T07:00:04.674Z,57.95
2023-04-26T07:02:33.094Z,58.57
2023-04-26T07:05:00.045Z,59.89
2023-04-26T07:07:27.452Z,59.16
2023-04-26T07:09:54.612Z,58.13
2023-04-26T07:12:21.827Z,57.78
2023-04-26T07:14:48.840Z,56.96
2023-04-26T07:17:15.813Z,55.69
2023-04-26T07:19:44.142Z,56.18
2023-04-26T07:22:11.137Z,55.27
2023-04-26T07:24:38.222Z,56.07
2023-04-26T07:27:05.137Z,50.91
2023-04-26T07:29:32.098Z,47.71
2023-04-26T07:31:59.315Z,45.53
2023-04-26T07:34:26.336Z,45.35
2023-04-26T07:36:54.781Z,46.86
2023-04-26T07:39:21.625Z,46.86
2023-04-26T07:41:48.701Z,48.91
2023-04-26T07:44:15.880Z,49.72
2023-04-26T07:46:42.800Z,50.09
2023-04-26T07:49:09.829Z,49.44
2023-04-26T07:51:37.244Z,49.42
2023-04-26T07:54:05.861Z,49.63
2023-04-26T07:56:32.863Z,50.28
2023-04-26T07:58:59.813Z,50.52
2023-04-26T08:01:27.169Z,50.52
2023-04-26T08:03:55.702Z,50.86
2023-04-26T08:06:23.000Z,49.87
2023-04-26T08:08:50.944Z,48.88
2023-04-26T08:11:19.471Z,49.23
2023-04-26T08:13:46.702Z,50.74
2023-04-26T08:16:14.094Z,48.94
2023-04-26T08:18:41.125Z,49.67
2023-04-26T08:21:08.064Z,49.55
2023-04-26T08:23:38.359Z,51.10
2023-04-26T08:26:06.591Z,50.17
2023-04-26T08:28:35.881Z,49.37
2023-04-26T08:31:03.000Z,49.38
2023-04-26T08:33:30.004Z,50.32
2023-04-26T08:35:59.473Z,49.33
2023-04-26T08:38:26.824Z,49.13
2023-04-26T08:40:56.287Z,50.54
2023-04-26T08:43:23.521Z,49.30
2023-04-26T08:45:51.867Z,48.78
2023-04-26T08:48:18.762Z,49.07
2023-04-26T08:50:49.007Z,47.92
2023-04-26T08:53:18.013Z,47.74
2023-04-26T08:55:48.370Z,47.81
2023-04-26T08:58:16.635Z,47.92
2023-04-26T09:00:45.154Z,47.75
2023-04-26T09:03:13.856Z,47.58
2023-04-26T09:05:44.301Z,48.89
2023-04-26T09:08:16.350Z,48.34
2023-04-26T09:10:43.608Z,47.69
2023-04-26T09:13:11.530Z,47.82
2023-04-26T09:15:39.087Z,47.95
2023-04-26T09:18:21.429Z,48.79
2023-04-26T09:21:03.054Z,48.79
2023-04-26T09:23:30.791Z,46.85
2023-04-26T09:26:14.909Z,46.86
2023-04-26T09:28:42.805Z,47.28
2023-04-26T09:31:10.464Z,47.48
2023-04-26T09:33:57.921Z,47.73
2023-04-26T09:36:24.849Z,46.82
2023-04-26T09:38:52.021Z,47.92
2023-04-26T09:41:19.172Z,46.79
2023-04-26T09:43:46.783Z,48.41
2023-04-26T09:46:23.973Z,46.11
2023-04-26T09:49:03.043Z,45.95
2023-04-26T09:51:30.223Z,44.31
2023-04-26T09:53:57.248Z,44.22
2023-04-26T09:56:24.269Z,45.66
2023-04-26T09:59:00.908Z,43.06
2023-04-26T10:01:33.264Z,43.16
2023-04-26T10:04:02.676Z,44.29
2023-04-26T10:06:29.752Z,43.59
2023-04-26T10:08:57.104Z,42.13
2023-04-26T10:11:25.028Z,42.34
2023-04-26T10:13:52.209Z,41.81
2023-04-26T10:16:19.534Z,41.91
2023-04-26T10:18:46.546Z,42.55
2023-04-26T10:21:17.414Z,41.65
2023-04-26T10:23:46.132Z,41.01
2023-04-26T10:26:51.737Z,41.64
2023-04-26T10:29:19.323Z,40.98
2023-04-26T10:32:09.576Z,40.26
2023-04-26T10:34:37.697Z,40.73
2023-04-26T10:37:10.258Z,40.95
2023-04-26T10:39:37.748Z,41.64
2023-04-26T10:42:25.443Z,40.84
2023-04-26T10:44:54.070Z,39.81
2023-04-26T10:47:32.008Z,41.84
2023-04-26T10:50:05.878Z,41.02
2023-04-26T10:52:35.043Z,40.65
2023-04-26T10:55:02.854Z,40.66
2023-04-26T10:57:52.375Z,40.25
2023-04-26T11:00:31.960Z,39.85
2023-04-26T11:03:07.103Z,40.66
2023-04-26T11:05:54.258Z,39.78
2023-04-26T11:08:25.669Z,37.15
2023-04-26T11:10:58.611Z,38.36
2023-04-26T11:13:25.854Z,38.69
2023-04-26T11:15:53.839Z,38.69
2023-04-26T11:18:21.348Z,38.87
2023-04-26T11:20:48.332Z,38.53
2023-04-26T11:23:15.485Z,38.80
2023-04-26T11:25:44.511Z,37.85
2023-04-26T11:28:12.176Z,38.06
2023-04-26T11:30:39.218Z,39.16
2023-04-26T11:33:06.518Z,38.24
2023-04-26T11:35:35.079Z,37.72
2023-04-26T11:38:04.305Z,38.25
2023-04-26T11:40:32.631Z,36.83
2023-04-26T11:43:02.461Z,37.30
2023-04-26T11:45:29.840Z,37.52
2023-04-26T11:47:57.842Z,37.80
2023-04-26T11:50:26.857Z,38.02
2023-04-26T11:52:55.775Z,37.64
2023-04-26T11:55:28.692Z,37.79
2023-04-26T11:57:56.039Z,37.72
2023-04-26T12:00:25.753Z,37.49
2023-04-26T12:02:53.645Z,38.59
2023-04-26T12:05:24.964Z,37.47
2023-04-26T12:07:52.940Z,38.41
2023-04-26T12:10:21.635Z,38.42
2023-04-26T12:12:50.024Z,37.29
2023-04-26T12:15:18.129Z,37.49
2023-04-26T12:17:57.449Z,37.63
2023-04-26T12:20:32.125Z,39.12
2023-04-26T12:22:59.470Z,37.32
2023-04-26T12:25:26.399Z,37.98
2023-04-26T12:27:53.352Z,38.10
2023-04-26T12:30:20.515Z,37.50
2023-04-26T12:33:15.506Z,37.84
2023-04-26T12:35:46.868Z,37.88
2023-04-26T12:38:14.629Z,37.96
2023-04-26T12:40:42.473Z,38.12
2023-04-26T12:43:10.029Z,38.20
2023-04-26T12:45:37.327Z,38.49
2023-04-26T12:48:06.536Z,37.86
2023-04-26T12:50:33.630Z,39.58
2023-04-26T12:53:00.560Z,39.36
2023-04-26T12:55:28.244Z,40.37
2023-04-26T12:57:56.602Z,40.00
2023-04-26T13:00:23.637Z,39.64
2023-04-26T13:02:50.981Z,39.56
2023-04-26T13:05:19.545Z,38.76
2023-04-26T13:07:46.608Z,39.75
2023-04-26T13:10:13.690Z,40.53
2023-04-26T13:12:40.765Z,40.29
2023-04-26T13:15:08.862Z,40.82
2023-04-26T13:17:37.474Z,41.00
2023-04-26T13:20:06.056Z,42.06
2023-04-26T13:22:34.820Z,42.24
2023-04-26T13:25:02.150Z,42.32
2023-04-26T13:27:31.354Z,42.91
2023-04-26T13:29:58.854Z,42.50
2023-04-26T13:32:26.120Z,40.77
2023-04-26T13:34:53.555Z,40.98
2023-04-26T13:37:21.541Z,40.67
2023-04-26T13:39:50.099Z,42.08
2023-04-26T13:42:17.626Z,42.71
2023-04-26T13:44:44.883Z,42.92
2023-04-26T13:47:11.900Z,42.83
2023-04-26T13:49:41.446Z,44.64
2023-04-26T13:52:08.391Z,44.04
2023-04-26T13:54:36.865Z,43.21
2023-04-26T13:57:05.933Z,44.11
2023-04-26T13:59:33.005Z,44.09
2023-04-26T14:01:59.956Z,44.40
2023-04-26T14:04:27.230Z,45.67
2023-04-26T14:06:54.509Z,46.31
2023-04-26T14:09:21.578Z,46.21
2023-04-26T14:11:54.200Z,45.64
2023-04-26T14:14:29.187Z,46.04
2023-04-26T14:16:56.090Z,46.21
2023-04-26T14:19:23.185Z,46.62
2023-04-26T14:21:50.221Z,47.06
2023-04-26T14:24:17.234Z,46.42
2023-04-26T14:26:44.290Z,46.62
2023-04-26T14:29:11.200Z,47.13
2023-04-26T14:31:39.650Z,46.50
2023-04-26T14:34:06.468Z,46.60
2023-04-26T14:36:33.814Z,47.72
2023-04-26T14:39:01.183Z,48.48
2023-04-26T14:41:28.244Z,47.59
2023-04-26T14:43:55.210Z,47.86
2023-04-26T14:46:22.752Z,48.78
2023-04-26T14:48:51.296Z,49.06
2023-04-26T14:51:18.284Z,49.67
2023-04-26T14:53:45.910Z,50.20
2023-04-26T14:56:12.979Z,49.91
2023-04-26T14:58:39.998Z,50.95
2023-04-26T15:01:07.710Z,51.38
2023-04-26T15:03:34.975Z,50.69
2023-04-26T15:06:04.005Z,51.76
2023-04-26T15:08:31.536Z,51.47
2023-04-26T15:10:58.583Z,51.47
2023-04-26T15:13:25.544Z,52.88
2023-04-26T15:15:52.814Z,51.96
2023-04-26T15:18:19.882Z,52.23
2023-04-26T15:20:46.888Z,52.10
2023-04-26T15:23:15.433Z,52.51
2023-04-26T15:25:42.542Z,52.77
2023-04-26T15:28:09.554Z,52.91
2023-04-26T15:30:36.578Z,53.89
2023-04-26T15:33:03.821Z,53.32
2023-04-26T15:35:31.382Z,53.28
2023-04-26T15:37:58.483Z,53.48
2023-04-26T15:40:27.712Z,54.24
2023-04-26T15:42:54.728Z,54.60
2023-04-26T15:45:21.789Z,54.24
2023-04-26T15:47:48.849Z,55.15
2023-04-26T15:50:16.020Z,54.98
2023-04-26T15:52:43.149Z,54.88
2023-04-26T15:55:10.597Z,55.02
2023-04-26T15:57:41.564Z,54.83
2023-04-26T16:00:12.915Z,55.77
2023-04-26T16:02:40.056Z,55.84
2023-04-26T16:05:08.338Z,56.50
2023-04-26T16:07:35.881Z,56.02
2023-04-26T16:10:03.248Z,56.64
2023-04-26T16:12:30.245Z,56.86
2023-04-26T16:14:59.147Z,56.59
2023-04-26T16:17:26.380Z,57.50
2023-04-26T16:19:53.321Z,57.20
2023-04-26T16:22:20.388Z,56.71
2023-04-26T16:24:47.372Z,56.86
2023-04-26T16:27:14.384Z,56.51
2023-04-26T16:29:41.336Z,57.02
2023-04-26T16:32:09.848Z,56.85
2023-04-26T16:34:36.850Z,57.32
2023-04-26T16:37:03.876Z,57.43
2023-04-26T16:39:31.578Z,57.09
2023-04-26T16:41:58.642Z,57.57
2023-04-26T16:44:25.855Z,56.46
2023-04-26T16:46:52.846Z,56.78
2023-04-26T16:49:21.227Z,57.08
2023-04-26T16:51:53.768Z,56.54
2023-04-26T16:54:21.018Z,57.31
2023-04-26T16:56:47.972Z,57.88
2023-04-26T16:59:14.999Z,57.16
2023-04-26T17:01:42.163Z,57.59
2023-04-26T17:04:12.395Z,57.66
2023-04-26T17:06:41.425Z,57.74
2023-04-26T17:09:08.863Z,57.43
2023-04-26T17:11:37.424Z,57.44
2023-04-26T17:14:04.692Z,57.25
2023-04-26T17:16:31.831Z,57.85
2023-04-26T17:18:58.925Z,57.64
2023-04-26T17:21:26.052Z,57.41
2023-04-26T17:23:54.709Z,58.13
2023-04-26T17:26:22.114Z,58.31
2023-04-26T17:28:49.052Z,58.09
2023-04-26T17:31:16.169Z,58.58
2023-04-26T17:33:43.412Z,58.10
2023-04-26T17:36:10.893Z,58.28
2023-04-26T17:38:37.856Z,58.30
2023-04-26T17:41:06.195Z,58.03
2023-04-26T17:43:33.232Z,58.79
2023-04-26T17:46:00.461Z,58.32
2023-04-26T17:48:29.167Z,58.75
2023-04-26T17:50:56.364Z,58.64
2023-04-26T17:53:23.532Z,58.68
2023-04-26T17:55:51.955Z,58.93
2023-04-26T17:58:20.694Z,58.66
2023-04-26T18:00:48.813Z,58.79
2023-04-26T18:03:16.033Z,58.63
2023-04-26T18:05:43.164Z,59.00
2023-04-26T18:08:10.194Z,58.89
2023-04-26T18:10:37.299Z,59.19
2023-04-26T18:13:04.292Z,58.87
2023-04-26T18:15:32.619Z,58.58
2023-04-26T18:17:59.840Z,58.64
2023-04-26T18:20:27.146Z,58.08
2023-04-26T18:22:54.107Z,58.23
2023-04-26T18:25:21.095Z,57.97
2023-04-26T18:27:48.028Z,58.10
2023-04-26T18:30:15.305Z,58.48
2023-04-26T18:32:43.747Z,58.29
2023-04-26T18:35:11.834Z,57.98
2023-04-26T18:37:39.786Z,58.35
2023-04-26T18:40:08.044Z,58.19
2023-04-26T18:42:35.003Z,57.83
2023-04-26T18:45:02.571Z,58.06
2023-04-26T18:47:29.595Z,58.37
2023-04-26T18:49:58.340Z,58.47
2023-04-26T18:52:43.450Z,58.11
2023-04-26T18:55:10.634Z,58.36
2023-04-26T18:57:37.543Z,58.52
2023-04-26T19:00:06.551Z,57.94
2023-04-26T19:02:34.446Z,57.99
2023-04-26T19:05:04.672Z,57.86
2023-04-26T19:07:31.854Z,58.10
2023-04-26T19:10:00.844Z,58.06
2023-04-26T19:12:28.498Z,57.80
2023-04-26T19:14:55.483Z,57.68
2023-04-26T19:17:22.764Z,57.55
2023-04-26T19:19:52.190Z,57.54
2023-04-26T19:22:20.692Z,57.57
2023-04-26T19:24:48.931Z,56.72
2023-04-26T19:27:16.458Z,56.83
2023-04-26T19:29:43.406Z,57.07
2023-04-26T19:32:10.367Z,56.81
2023-04-26T19:34:38.972Z,57.04
2023-04-26T19:37:05.902Z,57.22
2023-04-26T19:39:34.316Z,56.85
2023-04-26T19:42:01.609Z,56.56
2023-04-26T19:44:28.622Z,56.79
2023-04-26T19:46:56.630Z,56.59
2023-04-26T19:49:23.688Z,56.78
2023-04-26T19:51:50.774Z,56.87
2023-04-26T19:54:18.078Z,57.45
2023-04-26T19:56:46.606Z,56.95
2023-04-26T19:59:13.674Z,57.44
2023-04-26T20:01:40.678Z,57.37
2023-04-26T20:04:07.848Z,57.37
2023-04-26T20:06:35.130Z,57.33
2023-04-26T20:09:02.236Z,57.84
2023-04-26T20:11:29.227Z,57.32
2023-04-26T20:13:57.664Z,57.71
2023-04-26T20:16:25.307Z,57.91
2023-04-26T20:18:52.321Z,58.56
2023-04-26T20:21:19.268Z,58.11
2023-04-26T20:23:46.389Z,57.96
2023-04-26T20:26:13.453Z,57.91
2023-04-26T20:28:40.673Z,58.84
2023-04-26T20:31:09.584Z,58.68
2023-04-26T20:33:36.771Z,58.36
2023-04-26T20:36:03.842Z,58.29
2023-04-26T20:38:30.828Z,58.34
2023-04-26T20:40:57.982Z,58.30
2023-04-26T20:43:25.046Z,57.84
2023-04-26T20:45:52.045Z,57.85
2023-04-26T20:48:20.557Z,58.05
2023-04-26T20:50:47.662Z,58.76
2023-04-26T20:53:14.621Z,58.55
2023-04-26T20:55:41.676Z,58.78
2023-04-26T20:58:08.707Z,57.92
2023-04-26T21:00:35.924Z,57.80
2023-04-26T21:03:03.094Z,57.93
2023-04-26T21:05:31.765Z,56.91
2023-04-26T21:07:58.554Z,56.95
2023-04-26T21:10:25.599Z,56.83
2023-04-26T21:12:52.748Z,57.58
2023-04-26T21:15:19.740Z,57.34
2023-04-26T21:17:46.982Z,56.34
2023-04-26T21:20:14.256Z,56.54
2023-04-26T21:22:42.610Z,57.23
2023-04-26T21:25:10.603Z,56.54
2023-04-26T21:27:37.491Z,56.83
2023-04-26T21:30:05.433Z,56.87
2023-04-26T21:32:32.367Z,56.40
2023-04-26T21:34:59.363Z,56.42
2023-04-26T21:37:26.872Z,55.88
2023-04-26T21:39:55.365Z,56.34
2023-04-26T21:42:22.345Z,55.81
2023-04-26T21:44:49.309Z,55.79
2023-04-26T21:47:16.511Z,57.03
2023-04-26T21:49:43.439Z,56.37
2023-04-26T21:52:10.618Z,57.40
2023-04-26T21:54:37.640Z,56.21
2023-04-26T21:57:06.832Z,56.33
2023-04-26T21:59:34.191Z,56.20
2023-04-26T22:02:01.311Z,56.70
2023-04-26T22:04:28.455Z,55.80
2023-04-26T22:06:55.533Z,55.95
2023-04-26T22:09:22.697Z,55.35
2023-04-26T22:11:49.695Z,54.64
2023-04-26T22:14:18.148Z,54.95
2023-04-26T22:16:45.171Z,55.06
2023-04-26T22:19:12.368Z,54.69
2023-04-26T22:21:39.451Z,54.20
2023-04-26T22:24:07.315Z,54.04
2023-04-26T22:26:34.293Z,53.82
2023-04-26T22:29:01.268Z,54.75
2023-04-26T22:31:29.665Z,54.48
2023-04-26T22:33:56.854Z,54.14
2023-04-26T22:36:24.003Z,54.00
2023-04-26T22:38:51.172Z,53.99
2023-04-26T22:41:18.108Z,53.38
2023-04-26T22:43:47.260Z,54.04
2023-04-26T22:46:14.226Z,54.03
2023-04-26T22:48:42.556Z,53.24
2023-04-26T22:51:09.514Z,52.64
2023-04-26T22:53:36.438Z,52.22
2023-04-26T22:56:04.611Z,53.42
2023-04-26T22:58:31.578Z,53.33
2023-04-26T23:00:58.569Z,52.94
2023-04-26T23:03:25.694Z,52.71
2023-04-26T23:05:54.134Z,52.04
2023-04-26T23:08:21.482Z,52.16
2023-04-26T23:10:48.429Z,52.04
2023-04-26T23:13:16.281Z,52.59
2023-04-26T23:15:43.405Z,51.99
2023-04-26T23:18:10.642Z,52.46
2023-04-26T23:20:37.635Z,52.03
2023-04-26T23:23:24.507Z,51.96
2023-04-26T23:25:51.485Z,51.77
2023-04-26T23:28:18.414Z,51.47
2023-04-26T23:30:45.668Z,51.36
2023-04-26T23:33:12.611Z,52.10
2023-04-26T23:35:41.204Z,51.41
2023-04-26T23:38:09.577Z,51.37
2023-04-26T23:40:37.386Z,51.13
2023-04-26T23:43:06.225Z,51.20
2023-04-26T23:45:33.304Z,50.51
2023-04-26T23:48:00.394Z,51.84
2023-04-26T23:50:27.608Z,50.39
2023-04-26T23:52:54.561Z,50.24
2023-04-26T23:55:23.884Z,50.83
2023-04-26T23:57:50.852Z,50.50
